sensor_id;sensor_type;location;lat;lon;timestamp;pressure;altitude;pressure_sealevel;temperature;humidity
59240;BME280;45010;53.640;10.578;2023-04-25T00:01:23;99741.59;;;25.62;32.23
59240;BME280;45010;53.640;10.578;2023-04-25T00:04:24;99738.34;;;25.60;32.54
59240;BME280;45010;53.640;10.578;2023-04-25T00:07:25;99741.03;;;25.60;33.18
59240;BME280;45010;53.640;10.578;2023-04-25T00:10:26;99736.75;;;25.59;32.38
59240;BME280;45010;53.640;10.578;2023-04-25T00:13:26;99743.16;;;25.58;32.52
59240;BME280;45010;53.640;10.578;2023-04-25T00:16:26;99741.56;;;25.57;32.32
59240;BME280;45010;53.640;10.578;2023-04-25T00:19:27;99745.28;;;25.56;32.48
59240;BME280;45010;53.640;10.578;2023-04-25T00:22:28;99742.88;;;25.55;32.39
59240;BME280;45010;53.640;10.578;2023-04-25T00:25:28;99745.56;;;25.55;32.38
59240;BME280;45010;53.640;10.578;2023-04-25T00:28:29;99748.47;;;25.53;32.63
59240;BME280;45010;53.640;10.578;2023-04-25T00:31:30;99736.16;;;25.47;32.42
59240;BME280;45010;53.640;10.578;2023-04-25T00:34:30;99754.84;;;25.52;32.50
59240;BME280;45010;53.640;10.578;2023-04-25T00:37:30;99746.28;;;25.50;32.55
59240;BME280;45010;53.640;10.578;2023-04-25T00:40:31;99751.63;;;25.50;32.44
59240;BME280;45010;53.640;10.578;2023-04-25T00:43:32;99739.59;;;25.42;32.54
59240;BME280;45010;53.640;10.578;2023-04-25T00:46:32;99759.63;;;25.45;32.53
59240;BME280;45010;53.640;10.578;2023-04-25T00:49:32;99762.84;;;25.47;32.43
59240;BME280;45010;53.640;10.578;2023-04-25T00:52:33;99766.59;;;25.46;32.66
59240;BME280;45010;53.640;10.578;2023-04-25T00:55:34;99767.66;;;25.45;32.49
59240;BME280;45010;53.640;10.578;2023-04-25T00:58:36;99775.66;;;25.45;32.50
59240;BME280;45010;53.640;10.578;2023-04-25T01:01:38;99767.09;;;25.43;32.61
59240;BME280;45010;53.640;10.578;2023-04-25T01:04:39;99774.03;;;25.44;32.59
59240;BME280;45010;53.640;10.578;2023-04-25T01:07:40;99774.56;;;25.41;32.61
59240;BME280;45010;53.640;10.578;2023-04-25T01:10:41;99771.34;;;25.38;32.61
59240;BME280;45010;53.640;10.578;2023-04-25T01:13:41;99777.47;;;25.39;32.70
59240;BME280;45010;53.640;10.578;2023-04-25T01:16:42;99756.38;;;25.32;32.49
59240;BME280;45010;53.640;10.578;2023-04-25T01:19:42;99769.72;;;25.37;32.66
59240;BME280;45010;53.640;10.578;2023-04-25T01:22:43;99774.28;;;25.37;32.62
59240;BME280;45010;53.640;10.578;2023-04-25T01:25:44;99753.69;;;25.27;32.66
59240;BME280;45010;53.640;10.578;2023-04-25T01:28:45;99774.53;;;25.35;32.70
59240;BME280;45010;53.640;10.578;2023-04-25T01:31:45;99771.34;;;25.33;32.74
59240;BME280;45010;53.640;10.578;2023-04-25T01:34:46;99772.41;;;25.32;32.66
59240;BME280;45010;53.640;10.578;2023-04-25T01:37:47;99767.06;;;25.32;32.71
59240;BME280;45010;53.640;10.578;2023-04-25T01:40:48;99770.78;;;25.26;32.67
59240;BME280;45010;53.640;10.578;2023-04-25T01:43:50;99779.84;;;25.30;32.80
59240;BME280;45010;53.640;10.578;2023-04-25T01:46:51;99772.88;;;25.24;32.79
59240;BME280;45010;53.640;10.578;2023-04-25T01:49:51;99778.25;;;25.29;32.63
59240;BME280;45010;53.640;10.578;2023-04-25T01:52:52;99781.97;;;25.28;32.59
59240;BME280;45010;53.640;10.578;2023-04-25T01:55:53;99780.09;;;25.29;32.80
59240;BME280;45010;53.640;10.578;2023-04-25T01:58:53;99789.44;;;25.26;32.66
59240;BME280;45010;53.640;10.578;2023-04-25T02:01:53;99785.16;;;25.25;32.81
59240;BME280;45010;53.640;10.578;2023-04-25T02:04:54;99793.16;;;25.25;32.62
59240;BME280;45010;53.640;10.578;2023-04-25T02:07:54;99811.84;;;25.25;32.64
59240;BME280;45010;53.640;10.578;2023-04-25T02:10:55;99802.22;;;25.24;32.76
59240;BME280;45010;53.640;10.578;2023-04-25T02:13:55;99805.97;;;25.23;32.67
59240;BME280;45010;53.640;10.578;2023-04-25T02:16:55;99808.09;;;25.21;32.61
59240;BME280;45010;53.640;10.578;2023-04-25T02:19:57;99809.69;;;25.22;32.29
59240;BME280;45010;53.640;10.578;2023-04-25T02:22:57;99820.38;;;25.22;32.70
59240;BME280;45010;53.640;10.578;2023-04-25T02:25:57;99821.44;;;25.21;32.73
59240;BME280;45010;53.640;10.578;2023-04-25T02:28:58;99833.16;;;25.20;32.61
59240;BME280;45010;53.640;10.578;2023-04-25T02:31:58;99833.41;;;25.18;32.72
59240;BME280;45010;53.640;10.578;2023-04-25T02:34:58;99836.88;;;25.19;32.44
59240;BME280;45010;53.640;10.578;2023-04-25T02:38:03;99836.09;;;25.18;32.78
59240;BME280;45010;53.640;10.578;2023-04-25T02:41:04;99839.00;;;25.17;32.71
59240;BME280;45010;53.640;10.578;2023-04-25T02:44:04;99839.00;;;25.17;32.63
59240;BME280;45010;53.640;10.578;2023-04-25T02:47:04;99837.41;;;25.16;32.73
59240;BME280;45010;53.640;10.578;2023-04-25T02:50:05;99841.13;;;25.15;32.63
59240;BME280;45010;53.640;10.578;2023-04-25T02:53:06;99834.16;;;25.14;32.64
59240;BME280;45010;53.640;10.578;2023-04-25T02:56:06;99842.47;;;25.12;32.95
59240;BME280;45010;53.640;10.578;2023-04-25T02:59:06;99845.13;;;25.12;32.72
59240;BME280;45010;53.640;10.578;2023-04-25T03:02:07;99837.38;;;25.10;32.78
59240;BME280;45010;53.640;10.578;2023-04-25T03:05:07;99844.31;;;25.11;32.81
59240;BME280;45010;53.640;10.578;2023-04-25T03:08:07;99842.69;;;25.10;32.65
59240;BME280;45010;53.640;10.578;2023-04-25T03:11:08;99835.75;;;25.09;32.66
59240;BME280;45010;53.640;10.578;2023-04-25T03:14:08;99844.56;;;25.10;32.64
59240;BME280;45010;53.640;10.578;2023-04-25T03:17:09;99842.16;;;25.08;32.33
59240;BME280;45010;53.640;10.578;2023-04-25T03:20:10;99840.53;;;25.07;32.75
59240;BME280;45010;53.640;10.578;2023-04-25T03:23:10;99840.53;;;25.07;32.53
59240;BME280;45010;53.640;10.578;2023-04-25T03:26:10;99834.66;;;25.05;32.62
59240;BME280;45010;53.640;10.578;2023-04-25T03:29:11;99848.00;;;25.05;32.62
59240;BME280;45010;53.640;10.578;2023-04-25T03:32:11;99848.00;;;25.05;32.67
59240;BME280;45010;53.640;10.578;2023-04-25T03:35:12;99846.41;;;25.04;32.47
59240;BME280;45010;53.640;10.578;2023-04-25T03:38:12;99852.78;;;25.03;32.81
59240;BME280;45010;53.640;10.578;2023-04-25T03:41:12;99852.78;;;25.03;32.63
59240;BME280;45010;53.640;10.578;2023-04-25T03:44:13;99857.31;;;25.03;32.64
59240;BME280;45010;53.640;10.578;2023-04-25T03:47:13;99867.19;;;25.02;32.68
59240;BME280;45010;53.640;10.578;2023-04-25T03:50:14;99868.22;;;25.01;32.65
59240;BME280;45010;53.640;10.578;2023-04-25T03:53:14;99874.63;;;25.00;32.56
59240;BME280;45010;53.640;10.578;2023-04-25T03:56:14;99867.41;;;24.95;32.52
59240;BME280;45010;53.640;10.578;2023-04-25T03:59:15;99881.03;;;24.99;32.56
59240;BME280;45010;53.640;10.578;2023-04-25T04:02:15;99883.69;;;24.99;32.76
59240;BME280;45010;53.640;10.578;2023-04-25T04:05:15;99883.69;;;24.99;32.58
59240;BME280;45010;53.640;10.578;2023-04-25T04:08:16;99884.75;;;24.98;32.53
59240;BME280;45010;53.640;10.578;2023-04-25T04:11:16;99890.09;;;24.98;32.67
59240;BME280;45010;53.640;10.578;2023-04-25T04:14:16;99899.16;;;24.97;32.60
59240;BME280;45010;53.640;10.578;2023-04-25T04:17:17;99908.22;;;24.96;32.52
59240;BME280;45010;53.640;10.578;2023-04-25T04:20:17;99893.22;;;24.90;32.41
59240;BME280;45010;53.640;10.578;2023-04-25T04:23:19;99910.06;;;24.95;32.53
59240;BME280;45010;53.640;10.578;2023-04-25T04:26:19;99913.56;;;24.96;32.52
59240;BME280;45010;53.640;10.578;2023-04-25T04:29:23;99911.16;;;24.94;32.59
59240;BME280;45010;53.640;10.578;2023-04-25T04:32:23;99919.16;;;24.94;32.67
59240;BME280;45010;53.640;10.578;2023-04-25T04:35:25;99906.81;;;24.88;32.49
59240;BME280;45010;53.640;10.578;2023-04-25T04:38:25;99916.72;;;24.93;32.65
59240;BME280;45010;53.640;10.578;2023-04-25T04:41:26;99923.13;;;24.92;32.59
59240;BME280;45010;53.640;10.578;2023-04-25T04:44:26;99924.72;;;24.93;32.62
59240;BME280;45010;53.640;10.578;2023-04-25T04:47:27;99928.47;;;24.92;32.58
59240;BME280;45010;53.640;10.578;2023-04-25T04:50:30;99929.25;;;24.92;32.56
59240;BME280;45010;53.640;10.578;2023-04-25T04:53:32;99939.13;;;24.92;32.75
59240;BME280;45010;53.640;10.578;2023-04-25T04:56:32;99929.47;;;24.85;32.74
59240;BME280;45010;53.640;10.578;2023-04-25T04:59:33;99942.84;;;24.91;32.56
59240;BME280;45010;53.640;10.578;2023-04-25T05:02:33;99945.53;;;24.91;32.40
59240;BME280;45010;53.640;10.578;2023-04-25T05:05:33;99950.84;;;24.91;32.34
59240;BME280;45010;53.640;10.578;2023-04-25T05:08:34;99957.22;;;24.90;32.50
59240;BME280;45010;53.640;10.578;2023-04-25T05:11:34;99957.22;;;24.90;32.88
59240;BME280;45010;53.640;10.578;2023-04-25T05:14:35;99942.72;;;24.80;32.70
59240;BME280;45010;53.640;10.578;2023-04-25T05:17:35;99957.22;;;24.90;32.53
59240;BME280;45010;53.640;10.578;2023-04-25T05:20:35;99960.94;;;24.89;32.47
59240;BME280;45010;53.640;10.578;2023-04-25T05:23:36;99960.94;;;24.89;32.28
59240;BME280;45010;53.640;10.578;2023-04-25T05:26:37;99944.25;;;24.76;32.39
59240;BME280;45010;53.640;10.578;2023-04-25T05:29:37;99957.75;;;24.87;32.36
59240;BME280;45010;53.640;10.578;2023-04-25T05:32:38;99957.75;;;24.87;32.31
59240;BME280;45010;53.640;10.578;2023-04-25T05:35:38;99964.06;;;24.80;32.32
59240;BME280;45010;53.640;10.578;2023-04-25T05:38:39;99980.69;;;24.88;32.32
59240;BME280;45010;53.640;10.578;2023-04-25T05:41:39;99979.06;;;24.87;32.15
59240;BME280;45010;53.640;10.578;2023-04-25T05:44:39;99984.41;;;24.87;32.21
59240;BME280;45010;53.640;10.578;2023-04-25T05:47:40;99984.41;;;24.87;32.17
59240;BME280;45010;53.640;10.578;2023-04-25T05:50:41;99987.06;;;24.87;32.20
59240;BME280;45010;53.640;10.578;2023-04-25T05:53:41;99991.59;;;24.86;31.80
59240;BME280;45010;53.640;10.578;2023-04-25T05:56:41;99993.47;;;24.85;31.86
59240;BME280;45010;53.640;10.578;2023-04-25T05:59:42;99991.59;;;24.86;31.60
59240;BME280;45010;53.640;10.578;2023-04-25T06:02:42;99972.75;;;24.70;32.00
59240;BME280;45010;53.640;10.578;2023-04-25T06:05:43;99990.72;;;24.80;32.11
59240;BME280;45010;53.640;10.578;2023-04-25T06:08:43;100001.72;;;24.84;31.80
59240;BME280;45010;53.640;10.578;2023-04-25T06:11:43;99995.56;;;24.83;32.02
59240;BME280;45010;53.640;10.578;2023-04-25T06:14:44;99990.22;;;24.83;31.93
59240;BME280;45010;53.640;10.578;2023-04-25T06:17:44;99999.28;;;24.82;31.89
59240;BME280;45010;53.640;10.578;2023-04-25T06:20:44;100000.91;;;24.83;32.00
59240;BME280;45010;53.640;10.578;2023-04-25T06:23:45;100005.44;;;24.83;31.87
59240;BME280;45010;53.640;10.578;2023-04-25T06:26:45;100006.22;;;24.83;31.94
59240;BME280;45010;53.640;10.578;2023-04-25T06:29:45;100004.63;;;24.82;32.17
59240;BME280;45010;53.640;10.578;2023-04-25T06:32:45;100001.97;;;24.82;31.96
59240;BME280;45010;53.640;10.578;2023-04-25T06:35:46;100005.44;;;24.83;32.18
59240;BME280;45010;53.640;10.578;2023-04-25T06:38:46;100000.34;;;24.81;32.53
59240;BME280;45010;53.640;10.578;2023-04-25T06:41:46;99988.63;;;24.82;32.84
59240;BME280;45010;53.640;10.578;2023-04-25T06:44:47;99987.31;;;24.85;32.96
59240;BME280;45010;53.640;10.578;2023-04-25T06:47:47;100002.03;;;24.88;33.14
59240;BME280;45010;53.640;10.578;2023-04-25T06:50:47;100006.06;;;24.90;33.23
59240;BME280;45010;53.640;10.578;2023-04-25T06:53:48;100008.47;;;24.92;33.35
59240;BME280;45010;53.640;10.578;2023-04-25T06:56:48;100013.28;;;24.95;33.01
59240;BME280;45010;53.640;10.578;2023-04-25T06:59:48;100006.94;;;24.96;33.19
59240;BME280;45010;53.640;10.578;2023-04-25T07:02:49;100008.47;;;24.92;33.14
59240;BME280;45010;53.640;10.578;2023-04-25T07:05:50;100019.75;;;24.99;33.04
59240;BME280;45010;53.640;10.578;2023-04-25T07:08:50;100023.47;;;24.98;33.20
59240;BME280;45010;53.640;10.578;2023-04-25T07:11:52;100033.38;;;25.03;33.02
59240;BME280;45010;53.640;10.578;2023-04-25T07:14:52;100032.06;;;25.05;33.04
59240;BME280;45010;53.640;10.578;2023-04-25T07:17:52;100037.97;;;25.07;33.35
59240;BME280;45010;53.640;10.578;2023-04-25T07:20:53;100031.31;;;25.10;32.96
59240;BME280;45010;53.640;10.578;2023-04-25T07:23:53;100042.28;;;25.14;32.91
59240;BME280;45010;53.640;10.578;2023-04-25T07:26:53;100041.78;;;25.17;33.10
59240;BME280;45010;53.640;10.578;2023-04-25T07:29:54;100043.41;;;25.18;32.65
59240;BME280;45010;53.640;10.578;2023-04-25T07:32:54;100058.94;;;25.21;32.82
59240;BME280;45010;53.640;10.578;2023-04-25T07:35:55;100060.00;;;25.25;32.88
59240;BME280;45010;53.640;10.578;2023-04-25T07:38:56;100066.72;;;25.28;32.92
59240;BME280;45010;53.640;10.578;2023-04-25T07:41:56;100062.75;;;25.30;32.89
59240;BME280;45010;53.640;10.578;2023-04-25T07:44:58;100064.91;;;25.33;32.76
59240;BME280;45010;53.640;10.578;2023-04-25T07:47:58;100061.72;;;25.36;32.91
59240;BME280;45010;53.640;10.578;2023-04-25T07:50:59;100066.56;;;25.39;32.89
59240;BME280;45010;53.640;10.578;2023-04-25T07:53:59;100054.59;;;25.42;33.09
59240;BME280;45010;53.640;10.578;2023-04-25T07:57:00;100055.13;;;25.44;32.67
59240;BME280;45010;53.640;10.578;2023-04-25T08:00:02;100056.50;;;25.47;32.72
59240;BME280;45010;53.640;10.578;2023-04-25T08:03:02;100063.44;;;25.48;32.56
59240;BME280;45010;53.640;10.578;2023-04-25T08:06:03;100066.66;;;25.50;32.71
59240;BME280;45010;53.640;10.578;2023-04-25T08:09:03;100071.75;;;25.51;32.84
59240;BME280;45010;53.640;10.578;2023-04-25T08:12:04;100073.13;;;25.54;33.00
59240;BME280;45010;53.640;10.578;2023-04-25T08:15:05;100057.59;;;25.51;33.08
59240;BME280;45010;53.640;10.578;2023-04-25T08:18:06;100074.78;;;25.60;32.86
59240;BME280;45010;53.640;10.578;2023-04-25T08:21:06;100082.31;;;25.63;32.84
59240;BME280;45010;53.640;10.578;2023-04-25T08:24:08;100081.00;;;25.66;33.08
59240;BME280;45010;53.640;10.578;2023-04-25T08:27:09;100075.13;;;25.69;32.81
59240;BME280;45010;53.640;10.578;2023-04-25T08:30:10;100085.31;;;25.72;32.75
59240;BME280;45010;53.640;10.578;2023-04-25T08:33:10;100083.44;;;25.73;32.35
59240;BME280;45010;53.640;10.578;2023-04-25T08:36:11;100086.66;;;25.75;32.41
59240;BME280;45010;53.640;10.578;2023-04-25T08:39:11;100099.22;;;25.74;32.13
59240;BME280;45010;53.640;10.578;2023-04-25T08:42:14;100084.00;;;25.75;32.06
59240;BME280;45010;53.640;10.578;2023-04-25T08:45:15;100095.72;;;25.74;32.39
59240;BME280;45010;53.640;10.578;2023-04-25T08:48:16;100094.13;;;25.73;32.18
59240;BME280;45010;53.640;10.578;2023-04-25T08:51:22;100102.94;;;25.73;32.14
59240;BME280;45010;53.640;10.578;2023-04-25T08:54:27;100107.47;;;25.73;32.02
59240;BME280;45010;53.640;10.578;2023-04-25T08:57:28;100118.16;;;25.73;32.17
59240;BME280;45010;53.640;10.578;2023-04-25T09:00:30;100126.63;;;25.64;32.12
59240;BME280;45010;53.640;10.578;2023-04-25T09:03:31;100130.16;;;25.70;32.19
59240;BME280;45010;53.640;10.578;2023-04-25T09:06:32;100118.09;;;25.62;32.39
59240;BME280;45010;53.640;10.578;2023-04-25T09:09:32;100133.88;;;25.69;32.32
59240;BME280;45010;53.640;10.578;2023-04-25T09:12:32;100133.09;;;25.69;32.22
59240;BME280;45010;53.640;10.578;2023-04-25T09:15:33;100130.66;;;25.67;32.35
59240;BME280;45010;53.640;10.578;2023-04-25T09:18:34;100135.19;;;25.67;32.42
59240;BME280;45010;53.640;10.578;2023-04-25T09:21:35;100144.25;;;25.65;32.34
59240;BME280;45010;53.640;10.578;2023-04-25T09:24:37;100139.16;;;25.64;32.35
59240;BME280;45010;53.640;10.578;2023-04-25T09:27:52;100146.41;;;25.63;32.11
59240;BME280;45010;53.640;10.578;2023-04-25T09:30:56;100137.75;;;25.56;32.17
59240;BME280;45010;53.640;10.578;2023-04-25T09:34:01;100120.03;;;25.45;32.34
59240;BME280;45010;53.640;10.578;2023-04-25T09:37:01;100150.63;;;25.59;32.17
59240;BME280;45010;53.640;10.578;2023-04-25T09:40:06;100144.66;;;25.52;32.35
59240;BME280;45010;53.640;10.578;2023-04-25T09:43:21;100153.72;;;25.51;32.56
59240;BME280;45010;53.640;10.578;2023-04-25T09:46:23;100161.00;;;25.56;32.24
59240;BME280;45010;53.640;10.578;2023-04-25T09:49:25;100134.38;;;25.38;32.42
59240;BME280;45010;53.640;10.578;2023-04-25T09:52:27;100163.13;;;25.54;32.26
59240;BME280;45010;53.640;10.578;2023-04-25T09:55:28;100165.19;;;25.51;32.30
59240;BME280;45010;53.640;10.578;2023-04-25T09:58:29;100166.25;;;25.50;32.24
59240;BME280;45010;53.640;10.578;2023-04-25T10:01:30;100172.66;;;25.49;32.22
59240;BME280;45010;53.640;10.578;2023-04-25T10:04:34;100180.91;;;25.48;32.22
59240;BME280;45010;53.640;10.578;2023-04-25T10:07:36;100168.63;;;25.47;32.32
59240;BME280;45010;53.640;10.578;2023-04-25T10:10:39;100161.66;;;25.46;32.24
59240;BME280;45010;53.640;10.578;2023-04-25T10:13:40;100167.00;;;25.46;32.12
59240;BME280;45010;53.640;10.578;2023-04-25T10:16:41;100181.41;;;25.45;32.18
59240;BME280;45010;53.640;10.578;2023-04-25T10:19:41;100164.59;;;25.44;32.18
59240;BME280;45010;53.640;10.578;2023-04-25T10:22:44;100186.19;;;25.43;32.71
59240;BME280;45010;53.640;10.578;2023-04-25T10:25:45;100185.63;;;25.41;32.44
59240;BME280;45010;53.640;10.578;2023-04-25T10:29:03;100188.31;;;25.41;32.11
59240;BME280;45010;53.640;10.578;2023-04-25T10:32:03;100185.09;;;25.38;32.38
59240;BME280;45010;53.640;10.578;2023-04-25T10:35:22;100173.78;;;25.31;32.33
59240;BME280;45010;53.640;10.578;2023-04-25T10:38:25;100170.00;;;25.27;32.29
59240;BME280;45010;53.640;10.578;2023-04-25T10:41:27;100196.78;;;25.37;32.26
59240;BME280;45010;53.640;10.578;2023-04-25T10:44:30;100192.53;;;25.36;32.33
59240;BME280;45010;53.640;10.578;2023-04-25T10:47:50;100193.09;;;25.38;32.25
59240;BME280;45010;53.640;10.578;2023-04-25T10:51:06;100191.47;;;25.37;32.26
59240;BME280;45010;53.640;10.578;2023-04-25T10:54:08;100184.44;;;25.31;32.24
59240;BME280;45010;53.640;10.578;2023-04-25T10:57:29;100204.25;;;25.35;32.22
59240;BME280;45010;53.640;10.578;2023-04-25T11:00:29;100206.38;;;25.33;32.20
59240;BME280;45010;53.640;10.578;2023-04-25T11:03:31;100225.31;;;25.32;32.33
59240;BME280;45010;53.640;10.578;2023-04-25T11:06:43;100224.47;;;25.31;32.31
59240;BME280;45010;53.640;10.578;2023-04-25T11:09:46;100213.25;;;25.29;32.45
59240;BME280;45010;53.640;10.578;2023-04-25T11:12:47;100214.31;;;25.28;32.37
59240;BME280;45010;53.640;10.578;2023-04-25T11:15:51;100211.41;;;25.30;32.23
59240;BME280;45010;53.640;10.578;2023-04-25T11:18:51;100204.94;;;25.25;32.11
59240;BME280;45010;53.640;10.578;2023-04-25T11:21:59;100215.94;;;25.29;32.16
59240;BME280;45010;53.640;10.578;2023-04-25T11:25:05;100241.00;;;25.28;32.45
59240;BME280;45010;53.640;10.578;2023-04-25T11:28:05;100236.47;;;25.29;32.29
59240;BME280;45010;53.640;10.578;2023-04-25T11:31:06;100236.47;;;25.29;32.27
59240;BME280;45010;53.640;10.578;2023-04-25T11:34:06;100235.66;;;25.28;32.17
59240;BME280;45010;53.640;10.578;2023-04-25T11:37:07;100238.59;;;25.27;32.26
59240;BME280;45010;53.640;10.578;2023-04-25T11:40:08;100225.59;;;25.13;32.22
59240;BME280;45010;53.640;10.578;2023-04-25T11:43:09;100226.47;;;25.19;32.26
59240;BME280;45010;53.640;10.578;2023-04-25T11:46:09;100232.44;;;25.26;32.24
59240;BME280;45010;53.640;10.578;2023-04-25T11:49:10;100235.84;;;25.21;32.32
59240;BME280;45010;53.640;10.578;2023-04-25T11:52:11;100245.81;;;25.26;32.78
59240;BME280;45010;53.640;10.578;2023-04-25T11:55:18;100245.81;;;25.26;32.31
59240;BME280;45010;53.640;10.578;2023-04-25T11:58:19;100235.13;;;25.26;32.18
59240;BME280;45010;53.640;10.578;2023-04-25T12:01:29;100245.22;;;25.24;32.26
59240;BME280;45010;53.640;10.578;2023-04-25T12:04:30;100223.72;;;25.14;32.25
59240;BME280;45010;53.640;10.578;2023-04-25T12:07:32;100245.22;;;25.24;32.43
59240;BME280;45010;53.640;10.578;2023-04-25T12:10:39;100258.00;;;25.22;32.19
59240;BME280;45010;53.640;10.578;2023-04-25T12:13:43;100286.31;;;25.23;32.32
59240;BME280;45010;53.640;10.578;2023-04-25T12:16:44;100284.06;;;25.15;32.30
59240;BME280;45010;53.640;10.578;2023-04-25T12:19:46;100293.75;;;25.21;32.32
59240;BME280;45010;53.640;10.578;2023-04-25T12:22:47;100284.06;;;25.15;32.37
59240;BME280;45010;53.640;10.578;2023-04-25T12:25:48;100290.50;;;25.19;32.31
59240;BME280;45010;53.640;10.578;2023-04-25T12:28:49;100294.25;;;25.18;32.59
59240;BME280;45010;53.640;10.578;2023-04-25T12:31:50;100291.56;;;25.18;32.34
59240;BME280;45010;53.640;10.578;2023-04-25T12:34:51;100268.47;;;25.06;32.19
59240;BME280;45010;53.640;10.578;2023-04-25T12:37:52;100288.91;;;25.18;32.30
59240;BME280;45010;53.640;10.578;2023-04-25T12:40:53;100270.41;;;25.11;32.38
59240;BME280;45010;53.640;10.578;2023-04-25T12:43:53;100283.56;;;25.18;32.55
59240;BME280;45010;53.640;10.578;2023-04-25T12:46:54;100256.09;;;25.00;32.42
59240;BME280;45010;53.640;10.578;2023-04-25T12:49:55;100280.34;;;25.16;32.42
59240;BME280;45010;53.640;10.578;2023-04-25T12:52:55;100286.75;;;25.15;32.35
59240;BME280;45010;53.640;10.578;2023-04-25T12:55:56;100256.84;;;24.95;32.34
59240;BME280;45010;53.640;10.578;2023-04-25T12:58:57;100285.09;;;25.14;32.45
59240;BME280;45010;53.640;10.578;2023-04-25T13:01:57;100285.09;;;25.14;32.32
59240;BME280;45010;53.640;10.578;2023-04-25T13:04:58;100284.56;;;25.11;32.38
59240;BME280;45010;53.640;10.578;2023-04-25T13:07:58;100302.16;;;25.12;32.43
59240;BME280;45010;53.640;10.578;2023-04-25T13:10:59;100307.50;;;25.12;32.36
59240;BME280;45010;53.640;10.578;2023-04-25T13:14:00;100316.56;;;25.11;32.38
59240;BME280;45010;53.640;10.578;2023-04-25T13:17:00;100324.03;;;25.09;32.48
59240;BME280;45010;53.640;10.578;2023-04-25T13:20:01;100327.25;;;25.11;32.36
59240;BME280;45010;53.640;10.578;2023-04-25T13:23:01;100330.97;;;25.10;32.45
59240;BME280;45010;53.640;10.578;2023-04-25T13:26:01;100314.41;;;25.08;31.84
59240;BME280;45010;53.640;10.578;2023-04-25T13:29:02;100326.69;;;25.09;32.40
59240;BME280;45010;53.640;10.578;2023-04-25T13:32:03;100317.06;;;25.08;32.29
59240;BME280;45010;53.640;10.578;2023-04-25T13:35:06;100318.09;;;25.07;32.22
59240;BME280;45010;53.640;10.578;2023-04-25T13:38:06;100320.78;;;25.07;32.32
59240;BME280;45010;53.640;10.578;2023-04-25T13:41:07;100323.44;;;25.07;32.35
59240;BME280;45010;53.640;10.578;2023-04-25T13:44:07;100315.44;;;25.07;32.28
59240;BME280;45010;53.640;10.578;2023-04-25T13:47:07;100326.09;;;25.07;32.15
59240;BME280;45010;53.640;10.578;2023-04-25T13:50:08;100297.03;;;24.89;32.28
59240;BME280;45010;53.640;10.578;2023-04-25T13:53:09;100324.50;;;25.06;32.27
59240;BME280;45010;53.640;10.578;2023-04-25T13:56:10;100321.81;;;25.06;32.46
59240;BME280;45010;53.640;10.578;2023-04-25T13:59:11;100322.88;;;25.05;32.07
59240;BME280;45010;53.640;10.578;2023-04-25T14:02:12;100295.97;;;24.90;32.19
59240;BME280;45010;53.640;10.578;2023-04-25T14:05:12;100321.03;;;25.06;32.23
59240;BME280;45010;53.640;10.578;2023-04-25T14:08:13;100322.88;;;25.05;32.27
59240;BME280;45010;53.640;10.578;2023-04-25T14:11:13;100326.59;;;25.04;32.25
59240;BME280;45010;53.640;10.578;2023-04-25T14:14:13;100331.13;;;25.04;31.93
59240;BME280;45010;53.640;10.578;2023-04-25T14:17:16;100331.94;;;25.04;32.17
59240;BME280;45010;53.640;10.578;2023-04-25T14:20:16;100338.34;;;25.03;32.19
59240;BME280;45010;53.640;10.578;2023-04-25T14:23:20;100339.41;;;25.02;32.33
59240;BME280;45010;53.640;10.578;2023-04-25T14:26:20;100343.09;;;25.01;32.49
59240;BME280;45010;53.640;10.578;2023-04-25T14:29:20;100350.06;;;25.02;32.78
59240;BME280;45010;53.640;10.578;2023-04-25T14:32:21;100367.69;;;25.03;32.71
59240;BME280;45010;53.640;10.578;2023-04-25T14:35:21;100358.63;;;25.04;33.14
59240;BME280;45010;53.640;10.578;2023-04-25T14:38:22;100353.28;;;25.04;33.29
59240;BME280;45010;53.640;10.578;2023-04-25T14:41:25;100346.03;;;25.00;33.31
59240;BME280;45010;53.640;10.578;2023-04-25T14:44:26;100366.13;;;25.07;33.37
59240;BME280;45010;53.640;10.578;2023-04-25T14:47:26;100360.56;;;25.09;33.08
59240;BME280;45010;53.640;10.578;2023-04-25T14:50:26;100346.34;;;25.03;33.18
59240;BME280;45010;53.640;10.578;2023-04-25T14:53:27;100354.91;;;25.05;32.97
59240;BME280;45010;53.640;10.578;2023-04-25T14:56:27;100368.31;;;25.10;32.82
59240;BME280;45010;53.640;10.578;2023-04-25T14:59:27;100375.28;;;25.11;32.71
59240;BME280;45010;53.640;10.578;2023-04-25T15:02:28;100367.28;;;25.11;32.54
59240;BME280;45010;53.640;10.578;2023-04-25T15:05:28;100376.88;;;25.12;32.58
59240;BME280;45010;53.640;10.578;2023-04-25T15:08:29;100374.81;;;25.15;32.75
59240;BME280;45010;53.640;10.578;2023-04-25T15:11:29;100381.75;;;25.16;32.60
59240;BME280;45010;53.640;10.578;2023-04-25T15:14:29;100383.38;;;25.17;32.58
59240;BME280;45010;53.640;10.578;2023-04-25T15:17:30;100400.19;;;25.17;32.42
59240;BME280;45010;53.640;10.578;2023-04-25T15:20:31;100398.31;;;25.18;32.45
59240;BME280;45010;53.640;10.578;2023-04-25T15:23:31;100422.09;;;25.19;32.21
59240;BME280;45010;53.640;10.578;2023-04-25T15:26:31;100418.59;;;25.19;32.28
59240;BME280;45010;53.640;10.578;2023-04-25T15:29:32;100412.22;;;25.20;32.46
59240;BME280;45010;53.640;10.578;2023-04-25T15:32:32;100415.47;;;25.22;32.59
59240;BME280;45010;53.640;10.578;2023-04-25T15:35:32;100423.47;;;25.22;32.49
59240;BME280;45010;53.640;10.578;2023-04-25T15:38:33;100422.97;;;25.25;32.86